Terminal Aerodrome Forecast
Issued by NWS

Home | Current Version | Previous Version | Text Only | Print | Product List | Glossary On
Versions: 1 2 3 4 5 6 7 8 9 10 11 12 13 14 15 16 17 18 19 20 21 22 23 24
244
FTUS42 KTAE 071340 AAA
TAFDHN
TAF AMD
KDHN 071340Z 0714/0812 34005KT P6SM OVC012
     FM071500 28007KT P6SM BKN015
     FM072000 32005KT P6SM SCT025=

USA.gov is the U.S. government's official web portal to all federal, state and local government web resources and services.